createdAt,value
2022-11-27T00:01:19.872Z,97.58
2022-11-27T00:04:21.959Z,96.97
2022-11-27T00:07:24.010Z,96.57
2022-11-27T00:10:26.003Z,96.32
2022-11-27T00:13:27.952Z,95.89
2022-11-27T00:16:32.512Z,95.42
2022-11-27T00:19:34.415Z,95.76
2022-11-27T00:22:37.695Z,96.19
2022-11-27T00:25:39.718Z,96.28
2022-11-27T00:28:41.629Z,95.78
2022-11-27T00:31:43.581Z,96.31
2022-11-27T00:34:46.156Z,96.25
2022-11-27T00:37:48.147Z,95.82
2022-11-27T00:40:50.248Z,95.68
2022-11-27T00:43:52.629Z,95.25
2022-11-27T00:46:54.462Z,94.78
2022-11-27T00:49:56.542Z,95.52
2022-11-27T00:52:59.748Z,96.15
2022-11-27T00:56:02.210Z,95.73
2022-11-27T00:59:06.385Z,95.46
2022-11-27T01:02:08.194Z,96.23
2022-11-27T01:05:10.343Z,96.24
2022-11-27T01:08:12.147Z,96.38
2022-11-27T01:11:16.353Z,96.56
2022-11-27T01:14:19.061Z,96.55
2022-11-27T01:17:21.052Z,96.71
2022-11-27T01:20:23.331Z,97.07
2022-11-27T01:23:25.418Z,97.63
2022-11-27T01:26:27.689Z,97.11
2022-11-27T01:29:29.481Z,97.25
2022-11-27T01:32:31.257Z,96.39
2022-11-27T01:35:33.859Z,95.63
2022-11-27T01:38:36.333Z,95.46
2022-11-27T01:41:41.367Z,95.32
2022-11-27T01:44:49.383Z,94.74
2022-11-27T01:47:57.097Z,95.61
2022-11-27T01:50:59.061Z,95.29
2022-11-27T01:54:01.030Z,95.49
2022-11-27T01:57:07.679Z,94.82
2022-11-27T02:00:14.187Z,94.34
2022-11-27T02:03:16.510Z,94.29
2022-11-27T02:06:18.334Z,93.64
2022-11-27T02:09:20.239Z,94.76
2022-11-27T02:12:42.222Z,95.70
2022-11-27T02:15:50.316Z,96.17
2022-11-27T02:19:15.469Z,95.84
2022-11-27T02:22:23.913Z,95.65
2022-11-27T02:26:03.190Z,95.76
2022-11-27T02:29:10.119Z,96.24
2022-11-27T02:32:19.069Z,96.46
2022-11-27T02:35:33.838Z,96.88
2022-11-27T02:38:46.551Z,98.15
2022-11-27T02:41:52.969Z,98.15
2022-11-27T02:45:01.992Z,98.73
2022-11-27T02:48:05.093Z,98.80
2022-11-27T02:51:10.086Z,99.35
2022-11-27T02:54:15.942Z,99.56
2022-11-27T02:57:20.261Z,100.00
2022-11-27T03:00:22.451Z,99.76
2022-11-27T03:03:34.672Z,99.11
2022-11-27T03:06:56.315Z,99.47
2022-11-27T03:10:02.374Z,99.44
2022-11-27T03:13:04.162Z,99.18
2022-11-27T03:16:13.350Z,99.01
2022-11-27T03:19:18.480Z,98.32
2022-11-27T03:22:20.485Z,98.46
2022-11-27T03:25:23.663Z,99.19
2022-11-27T03:28:25.417Z,99.05
2022-11-27T03:31:27.477Z,98.53
2022-11-27T03:34:29.421Z,98.21
2022-11-27T03:37:33.325Z,99.25
2022-11-27T03:41:07.839Z,98.98
2022-11-27T03:44:38.142Z,97.66
2022-11-27T03:47:55.022Z,97.22
2022-11-27T03:51:26.426Z,97.29
2022-11-27T03:54:50.137Z,96.98
2022-11-27T03:58:00.684Z,97.64
2022-11-27T04:01:04.427Z,97.62
2022-11-27T04:04:06.840Z,97.86
2022-11-27T04:07:15.175Z,97.52
2022-11-27T04:10:17.145Z,97.53
2022-11-27T04:13:19.006Z,98.19
2022-11-27T04:16:21.197Z,98.12
2022-11-27T04:19:23.004Z,98.37
2022-11-27T04:22:24.903Z,98.28
2022-11-27T04:25:26.932Z,98.17
2022-11-27T04:28:28.662Z,98.67
2022-11-27T04:31:30.415Z,98.26
2022-11-27T04:34:32.801Z,97.75
2022-11-27T04:37:34.637Z,98.35
2022-11-27T04:40:36.624Z,98.08
2022-11-27T04:43:39.561Z,98.36
2022-11-27T04:46:41.476Z,98.77
2022-11-27T04:49:43.597Z,99.81
2022-11-27T04:52:45.278Z,99.68
2022-11-27T04:55:47.348Z,99.09
2022-11-27T04:58:49.235Z,98.79
2022-11-27T05:01:51.009Z,97.70
2022-11-27T05:04:53.516Z,97.25
2022-11-27T05:07:55.865Z,97.32
2022-11-27T05:11:05.510Z,96.29
2022-11-27T05:14:18.839Z,96.07
2022-11-27T05:17:21.498Z,95.53
2022-11-27T05:20:23.982Z,95.41
2022-11-27T05:23:28.298Z,95.14
2022-11-27T05:26:32.849Z,95.62
2022-11-27T05:29:34.733Z,95.99
2022-11-27T05:32:39.448Z,95.49
2022-11-27T05:35:49.383Z,95.71
2022-11-27T05:38:54.407Z,95.25
2022-11-27T05:41:57.379Z,95.64
2022-11-27T05:45:00.025Z,95.79
2022-11-27T05:48:02.958Z,95.65
2022-11-27T05:51:05.704Z,95.74
2022-11-27T05:54:07.995Z,95.92
2022-11-27T05:57:12.566Z,96.37
2022-11-27T06:00:15.000Z,95.34
2022-11-27T06:03:20.066Z,95.54
2022-11-27T06:06:22.302Z,95.79
2022-11-27T06:09:24.166Z,94.78
2022-11-27T06:12:25.993Z,95.00
2022-11-27T06:15:28.331Z,94.36
2022-11-27T06:18:30.365Z,94.19
2022-11-27T06:21:32.269Z,94.38
2022-11-27T06:24:35.673Z,95.66
2022-11-27T06:27:37.740Z,95.49
2022-11-27T06:30:39.873Z,95.98
2022-11-27T06:33:42.531Z,97.99
2022-11-27T06:36:44.452Z,96.99
2022-11-27T06:39:49.200Z,96.46
2022-11-27T06:42:51.748Z,97.52
2022-11-27T06:45:59.108Z,97.44
2022-11-27T06:49:01.178Z,96.47
2022-11-27T06:52:03.500Z,96.50
2022-11-27T06:55:05.608Z,96.60
2022-11-27T06:58:07.482Z,95.99
2022-11-27T07:01:13.329Z,95.81
2022-11-27T07:04:16.215Z,95.76
2022-11-27T07:07:18.168Z,96.09
2022-11-27T07:10:20.151Z,96.75
2022-11-27T07:13:21.833Z,96.54
2022-11-27T07:16:24.401Z,96.39
2022-11-27T07:19:26.745Z,93.99
2022-11-27T07:22:28.869Z,92.99
2022-11-27T07:25:30.725Z,92.66
2022-11-27T07:28:32.578Z,93.02
2022-11-27T07:31:34.600Z,94.60
2022-11-27T07:34:36.548Z,94.33
2022-11-27T07:37:39.619Z,93.27
2022-11-27T07:40:41.471Z,93.82
2022-11-27T07:43:44.371Z,93.67
2022-11-27T07:46:46.237Z,93.39
2022-11-27T07:49:48.136Z,93.31
2022-11-27T07:52:50.038Z,92.22
2022-11-27T07:55:52.530Z,91.54
2022-11-27T07:58:54.869Z,91.24
2022-11-27T08:01:57.005Z,92.64
2022-11-27T08:04:58.853Z,93.52
2022-11-27T08:08:01.691Z,91.43
2022-11-27T08:11:03.591Z,92.09
2022-11-27T08:14:07.025Z,91.07
2022-11-27T08:17:12.057Z,91.11
2022-11-27T08:20:13.810Z,90.01
2022-11-27T08:23:15.740Z,90.06
2022-11-27T08:26:17.566Z,91.51
2022-11-27T08:29:19.363Z,91.61
2022-11-27T08:32:21.298Z,90.43
2022-11-27T08:35:23.336Z,91.36
2022-11-27T08:38:25.843Z,90.79
2022-11-27T08:41:30.666Z,89.56
2022-11-27T08:44:32.786Z,89.61
2022-11-27T08:47:34.856Z,89.07
2022-11-27T08:50:38.175Z,88.39
2022-11-27T08:53:40.186Z,88.93
2022-11-27T08:56:44.568Z,87.80
2022-11-27T08:59:46.553Z,88.27
2022-11-27T09:02:48.409Z,88.37
2022-11-27T09:05:50.297Z,86.96
2022-11-27T09:08:52.286Z,87.00
2022-11-27T09:11:55.032Z,86.59
2022-11-27T09:14:57.345Z,86.61
2022-11-27T09:17:59.901Z,86.04
2022-11-27T09:21:07.026Z,83.04
2022-11-27T09:24:09.509Z,83.92
2022-11-27T09:27:11.417Z,82.49
2022-11-27T09:30:13.676Z,80.58
2022-11-27T09:33:15.612Z,81.85
2022-11-27T09:36:22.922Z,81.44
2022-11-27T09:39:27.053Z,79.45
2022-11-27T09:42:39.988Z,80.71
2022-11-27T09:45:49.189Z,80.78
2022-11-27T09:48:51.455Z,79.90
2022-11-27T09:51:53.552Z,81.00
2022-11-27T09:55:18.806Z,80.06
2022-11-27T09:58:36.371Z,80.77
2022-11-27T10:01:45.262Z,82.27
2022-11-27T10:05:12.968Z,80.07
2022-11-27T10:08:24.860Z,78.10
2022-11-27T10:11:37.803Z,79.30
2022-11-27T10:15:00.307Z,79.80
2022-11-27T10:18:13.887Z,78.15
2022-11-27T10:21:26.293Z,78.71
2022-11-27T10:24:40.005Z,78.93
2022-11-27T10:27:57.641Z,76.99
2022-11-27T10:31:04.436Z,77.84
2022-11-27T10:34:21.196Z,78.67
2022-11-27T10:37:42.733Z,76.52
2022-11-27T10:40:53.778Z,77.10
2022-11-27T10:43:59.158Z,76.42
2022-11-27T10:47:04.406Z,75.99
2022-11-27T10:50:14.822Z,76.64
2022-11-27T10:53:19.716Z,76.70
2022-11-27T10:56:56.957Z,75.25
2022-11-27T11:00:11.106Z,75.39
2022-11-27T11:03:19.403Z,75.43
2022-11-27T11:06:26.699Z,73.73
2022-11-27T11:09:34.963Z,72.05
2022-11-27T11:12:37.264Z,71.62
2022-11-27T11:15:57.691Z,70.63
2022-11-27T11:19:01.674Z,70.66
2022-11-27T11:22:16.730Z,69.50
2022-11-27T11:25:20.343Z,69.64
2022-11-27T11:28:22.925Z,68.35
2022-11-27T11:31:39.298Z,69.73
2022-11-27T11:34:47.682Z,67.03
2022-11-27T11:37:49.698Z,68.30
2022-11-27T11:41:07.096Z,68.55
2022-11-27T11:44:23.217Z,67.56
2022-11-27T11:47:26.837Z,67.04
2022-11-27T11:50:41.272Z,67.64
2022-11-27T11:53:47.190Z,66.74
2022-11-27T11:56:52.860Z,66.94
2022-11-27T12:00:07.136Z,65.21
2022-11-27T12:03:34.734Z,65.15
2022-11-27T12:07:12.316Z,65.96
2022-11-27T12:10:39.151Z,65.95
2022-11-27T12:13:48.739Z,64.54
2022-11-27T12:17:17.697Z,65.59
2022-11-27T12:20:50.644Z,64.85
2022-11-27T12:24:12.860Z,65.17
2022-11-27T12:27:20.687Z,65.70
2022-11-27T12:30:26.745Z,65.67
2022-11-27T12:33:40.887Z,66.72
2022-11-27T12:37:18.932Z,65.55
2022-11-27T12:40:42.684Z,65.29
2022-11-27T12:43:48.649Z,65.92
2022-11-27T12:46:59.652Z,65.24
2022-11-27T12:50:14.596Z,64.95
2022-11-27T12:53:52.049Z,66.46
2022-11-27T12:56:57.901Z,66.95
2022-11-27T13:00:06.422Z,66.44
2022-11-27T13:03:22.287Z,65.94
2022-11-27T13:06:24.906Z,66.75
2022-11-27T13:09:37.011Z,66.32
2022-11-27T13:12:50.865Z,67.31
2022-11-27T13:15:56.914Z,67.69
2022-11-27T13:19:16.185Z,67.38
2022-11-27T13:22:29.951Z,68.11
2022-11-27T13:25:34.936Z,67.94
2022-11-27T13:28:53.284Z,67.94
2022-11-27T13:31:57.593Z,68.32
2022-11-27T13:35:03.328Z,68.24
2022-11-27T13:38:25.418Z,68.39
2022-11-27T13:41:34.274Z,68.46
2022-11-27T13:44:40.286Z,68.40
2022-11-27T13:47:44.004Z,68.71
2022-11-27T13:50:46.243Z,70.79
2022-11-27T13:53:48.159Z,71.00
2022-11-27T13:56:50.023Z,71.07
2022-11-27T14:00:05.884Z,70.97
2022-11-27T14:03:24.572Z,71.18
2022-11-27T14:06:29.251Z,71.74
2022-11-27T14:09:47.139Z,71.10
2022-11-27T14:12:57.318Z,71.30
2022-11-27T14:16:02.363Z,70.70
2022-11-27T14:19:06.894Z,72.10
2022-11-27T14:23:07.145Z,71.13
2022-11-27T14:26:25.136Z,70.30
2022-11-27T14:29:31.020Z,71.43
2022-11-27T14:32:35.696Z,71.42
2022-11-27T14:35:37.722Z,71.60
2022-11-27T14:38:40.242Z,71.32
2022-11-27T14:41:42.079Z,72.29
2022-11-27T14:44:43.969Z,72.94
2022-11-27T14:47:53.064Z,72.56
2022-11-27T14:50:56.208Z,73.60
2022-11-27T14:54:03.046Z,73.21
2022-11-27T14:57:06.167Z,73.28
2022-11-27T15:00:17.676Z,73.63
2022-11-27T15:03:20.848Z,73.51
2022-11-27T15:06:23.286Z,74.20
2022-11-27T15:09:32.301Z,74.37
2022-11-27T15:12:38.460Z,74.96
2022-11-27T15:15:44.079Z,74.70
2022-11-27T15:18:58.194Z,74.89
2022-11-27T15:22:00.399Z,75.11
2022-11-27T15:25:05.653Z,76.40
2022-11-27T15:28:50.142Z,77.17
2022-11-27T15:31:53.027Z,78.80
2022-11-27T15:34:55.623Z,78.16
2022-11-27T15:38:05.678Z,79.21
2022-11-27T15:41:28.864Z,78.46
2022-11-27T15:44:32.931Z,78.33
2022-11-27T15:47:37.139Z,77.16
2022-11-27T15:50:39.432Z,76.59
2022-11-27T15:53:41.695Z,77.28
2022-11-27T15:56:43.843Z,77.66
2022-11-27T15:59:46.085Z,78.15
2022-11-27T16:02:48.611Z,79.59
2022-11-27T16:05:51.259Z,85.76
2022-11-27T16:09:01.229Z,87.43
2022-11-27T16:12:03.734Z,87.31
2022-11-27T16:15:09.968Z,87.91
2022-11-27T16:18:12.184Z,91.38
2022-11-27T16:21:16.233Z,94.23
2022-11-27T16:24:18.822Z,93.56
2022-11-27T16:27:21.744Z,93.70
2022-11-27T16:30:26.472Z,95.92
2022-11-27T16:33:30.614Z,96.09
2022-11-27T16:36:33.465Z,98.24
2022-11-27T16:39:36.039Z,98.97
2022-11-27T16:42:38.803Z,98.17
2022-11-27T16:45:41.605Z,98.37
2022-11-27T16:48:45.434Z,98.66
2022-11-27T16:51:49.182Z,98.59
2022-11-27T16:54:55.512Z,98.72
2022-11-27T16:57:59.113Z,98.92
2022-11-27T17:01:13.460Z,98.96
2022-11-27T17:04:19.666Z,98.88
2022-11-27T17:07:22.603Z,98.21
2022-11-27T17:10:25.225Z,98.18
2022-11-27T17:13:27.654Z,98.69
2022-11-27T17:16:29.960Z,98.04
2022-11-27T17:19:34.594Z,97.58
2022-11-27T17:22:37.394Z,96.01
2022-11-27T17:25:42.025Z,96.71
2022-11-27T17:28:46.653Z,96.64
2022-11-27T17:31:50.963Z,97.65
2022-11-27T17:34:53.523Z,97.98
2022-11-27T17:37:56.574Z,96.89
2022-11-27T17:41:09.145Z,96.18
2022-11-27T17:44:11.394Z,95.43
2022-11-27T17:47:13.530Z,95.22
2022-11-27T17:50:15.589Z,93.65
2022-11-27T17:53:19.620Z,93.37
2022-11-27T17:56:22.285Z,93.30
2022-11-27T17:59:24.786Z,93.29
2022-11-27T18:02:27.248Z,93.59
2022-11-27T18:05:29.640Z,92.94
2022-11-27T18:08:33.054Z,92.02
2022-11-27T18:11:35.469Z,91.65
2022-11-27T18:14:37.877Z,91.14
2022-11-27T18:17:40.791Z,90.32
2022-11-27T18:20:44.355Z,90.83
2022-11-27T18:27:15.654Z,90.32
2022-11-27T18:30:18.059Z,91.16
2022-11-27T18:33:20.426Z,90.61
2022-11-27T18:36:23.289Z,90.18
2022-11-27T18:39:26.864Z,89.29
2022-11-27T18:42:30.925Z,90.09
2022-11-27T18:45:33.316Z,89.67
2022-11-27T18:48:39.566Z,89.90
2022-11-27T18:51:41.912Z,89.95
2022-11-27T18:54:44.557Z,89.93
2022-11-27T18:57:47.981Z,90.58
2022-11-27T19:00:51.738Z,90.07
2022-11-27T19:03:55.032Z,90.84
2022-11-27T19:06:58.453Z,90.65
2022-11-27T19:10:06.178Z,91.25
2022-11-27T19:13:09.047Z,91.32
2022-11-27T19:16:22.964Z,91.50
2022-11-27T19:22:50.883Z,90.28
2022-11-27T19:25:55.983Z,89.34
2022-11-27T19:29:08.494Z,89.46
2022-11-27T19:32:23.293Z,89.61
2022-11-27T19:35:27.515Z,89.93
2022-11-27T19:38:34.395Z,90.14
2022-11-27T19:41:41.669Z,89.85
2022-11-27T19:44:46.265Z,89.42
2022-11-27T19:47:50.244Z,89.00
2022-11-27T19:50:53.403Z,89.01
2022-11-27T19:53:56.091Z,88.21
2022-11-27T19:56:59.056Z,88.67
2022-11-27T20:00:01.277Z,88.09
2022-11-27T20:03:04.739Z,87.65
2022-11-27T20:06:10.507Z,88.73
2022-11-27T20:09:14.238Z,88.01
2022-11-27T20:12:16.546Z,87.78
2022-11-27T20:15:19.346Z,87.62
2022-11-27T20:18:22.963Z,88.48
2022-11-27T20:21:26.025Z,88.15
2022-11-27T20:24:28.586Z,88.80
2022-11-27T20:27:32.330Z,88.09
2022-11-27T20:30:38.374Z,87.11
2022-11-27T20:33:41.257Z,87.06
2022-11-27T20:36:44.251Z,88.24
2022-11-27T20:39:49.324Z,87.36
2022-11-27T20:42:52.565Z,88.21
2022-11-27T20:45:55.200Z,88.03
2022-11-27T20:49:05.704Z,87.83
2022-11-27T20:52:11.830Z,87.85
2022-11-27T20:55:14.254Z,88.16
2022-11-27T20:58:17.753Z,88.74
2022-11-27T21:01:22.741Z,88.72
2022-11-27T21:04:26.706Z,88.38
2022-11-27T21:07:29.592Z,88.18
2022-11-27T21:10:32.386Z,87.99
2022-11-27T21:13:34.489Z,88.72
2022-11-27T21:16:42.353Z,89.19
2022-11-27T21:19:45.207Z,89.01
2022-11-27T21:22:48.008Z,89.50
2022-11-27T21:25:50.551Z,89.04
2022-11-27T21:28:53.054Z,88.88
2022-11-27T21:31:55.769Z,89.02
2022-11-27T21:34:59.388Z,89.53
2022-11-27T21:38:02.299Z,89.78
2022-11-27T21:41:05.180Z,89.00
2022-11-27T21:44:07.171Z,89.74
2022-11-27T21:47:12.353Z,90.14
2022-11-27T21:50:15.367Z,90.36
2022-11-27T21:53:17.828Z,89.07
2022-11-27T21:56:22.759Z,88.56
2022-11-27T21:59:24.852Z,89.33
2022-11-27T22:02:27.432Z,89.43
2022-11-27T22:05:30.297Z,91.70
2022-11-27T22:11:52.593Z,93.46
2022-11-27T22:14:55.332Z,94.01
2022-11-27T22:17:57.731Z,92.93
2022-11-27T22:21:07.034Z,92.46
2022-11-27T22:24:19.472Z,92.20
2022-11-27T22:27:26.367Z,91.66
2022-11-27T22:30:31.201Z,91.12
2022-11-27T22:33:35.859Z,92.94
2022-11-27T22:36:38.070Z,95.23
2022-11-27T22:39:39.944Z,96.15
2022-11-27T22:42:42.060Z,96.72
2022-11-27T22:45:48.113Z,96.53
2022-11-27T22:48:58.472Z,96.24
2022-11-27T22:52:00.366Z,97.39
2022-11-27T22:55:03.890Z,98.44
2022-11-27T22:58:05.637Z,98.63
2022-11-27T23:01:19.027Z,98.15
2022-11-27T23:04:23.250Z,97.38
2022-11-27T23:07:25.597Z,97.10
2022-11-27T23:10:27.721Z,97.07
2022-11-27T23:13:46.356Z,97.49
2022-11-27T23:16:51.259Z,98.93
2022-11-27T23:19:53.161Z,99.31
2022-11-27T23:22:55.112Z,99.42
2022-11-27T23:26:02.816Z,100.00
2022-11-27T23:29:05.341Z,100.00
2022-11-27T23:32:07.436Z,100.00
2022-11-27T23:35:10.110Z,100.00
2022-11-27T23:38:12.271Z,100.00
2022-11-27T23:41:25.413Z,100.00
2022-11-27T23:44:27.306Z,100.00
2022-11-27T23:47:30.478Z,100.00
2022-11-27T23:50:32.354Z,100.00
2022-11-27T23:53:34.303Z,100.00
2022-11-27T23:56:37.379Z,100.00
2022-11-27T23:59:46.006Z,100.00
